createdAt,value
2019-03-19T00:02:01.784Z,99.90
2019-03-19T00:04:31.257Z,99.90
2019-03-19T00:07:01.318Z,99.90
2019-03-19T00:09:31.163Z,99.90
2019-03-19T00:12:01.303Z,99.90
2019-03-19T00:14:31.595Z,99.90
2019-03-19T00:17:01.392Z,99.90
2019-03-19T00:19:30.970Z,99.90
2019-03-19T00:22:00.596Z,99.90
2019-03-19T00:24:30.545Z,99.90
2019-03-19T00:27:00.056Z,99.90
2019-03-19T00:29:29.676Z,99.90
2019-03-19T00:31:59.147Z,99.90
2019-03-19T00:34:28.594Z,99.90
2019-03-19T00:36:58.063Z,99.90
2019-03-19T00:39:27.424Z,99.90
2019-03-19T00:41:56.743Z,99.90
2019-03-19T00:44:26.147Z,99.90
2019-03-19T00:46:55.441Z,99.90
2019-03-19T00:49:24.696Z,99.90
2019-03-19T00:51:53.941Z,99.90
2019-03-19T00:54:24.951Z,99.90
2019-03-19T00:56:54.464Z,99.90
2019-03-19T00:59:23.797Z,99.90
2019-03-19T01:01:53.096Z,99.90
2019-03-19T01:04:22.318Z,99.90
2019-03-19T01:06:53.797Z,99.90
2019-03-19T01:09:23.320Z,99.90
2019-03-19T01:11:52.819Z,99.90
2019-03-19T01:14:22.294Z,99.90
2019-03-19T01:16:51.582Z,99.90
2019-03-19T01:19:20.867Z,99.90
2019-03-19T01:21:50.346Z,99.90
2019-03-19T01:24:19.628Z,99.90
2019-03-19T01:26:48.987Z,99.90
2019-03-19T01:29:18.242Z,99.90
2019-03-19T01:31:47.588Z,99.90
2019-03-19T01:34:16.889Z,99.90
2019-03-19T01:36:46.155Z,99.90
2019-03-19T01:39:15.548Z,99.90
2019-03-19T01:41:44.924Z,99.90
2019-03-19T01:44:14.286Z,99.90
2019-03-19T01:46:43.812Z,99.90
2019-03-19T01:49:15.176Z,99.90
2019-03-19T01:51:44.376Z,99.90
2019-03-19T01:54:13.626Z,99.90
2019-03-19T01:56:42.935Z,99.90
2019-03-19T01:59:12.280Z,99.90
2019-03-19T02:01:41.561Z,99.90
2019-03-19T02:04:10.859Z,99.90
2019-03-19T02:06:40.229Z,99.90
2019-03-19T02:09:09.866Z,99.90
2019-03-19T02:11:39.138Z,99.90
2019-03-19T02:14:08.502Z,99.90
2019-03-19T02:16:37.747Z,99.90
2019-03-19T02:19:07.044Z,99.90
2019-03-19T02:21:36.248Z,99.90
2019-03-19T02:24:05.603Z,99.90
2019-03-19T02:26:34.867Z,99.90
2019-03-19T02:29:04.128Z,99.90
2019-03-19T02:31:33.468Z,99.90
2019-03-19T02:34:02.696Z,99.90
2019-03-19T02:36:32.089Z,99.90
2019-03-19T02:39:01.662Z,99.90
2019-03-19T02:41:32.274Z,99.90
2019-03-19T02:44:01.619Z,99.90
2019-03-19T02:46:30.936Z,99.90
2019-03-19T02:49:00.287Z,99.90
2019-03-19T02:51:29.832Z,99.90
2019-03-19T02:53:59.092Z,99.90
2019-03-19T02:56:33.134Z,99.90
2019-03-19T02:58:59.408Z,99.90
2019-03-19T03:01:28.971Z,99.90
2019-03-19T03:03:58.211Z,99.90
2019-03-19T03:06:27.464Z,99.90
2019-03-19T03:08:56.815Z,99.90
2019-03-19T03:11:26.688Z,99.90
2019-03-19T03:13:55.914Z,99.90
2019-03-19T03:16:25.267Z,99.90
2019-03-19T03:18:55.640Z,99.90
2019-03-19T03:21:25.012Z,99.90
2019-03-19T03:23:54.335Z,99.90
2019-03-19T03:26:23.868Z,99.90
2019-03-19T03:28:53.177Z,99.90
2019-03-19T03:31:22.383Z,99.90
2019-03-19T03:33:51.652Z,99.90
2019-03-19T03:36:20.979Z,99.90
2019-03-19T03:38:50.519Z,99.90
2019-03-19T03:41:19.847Z,99.90
2019-03-19T03:43:49.063Z,99.90
2019-03-19T03:46:18.266Z,99.90
2019-03-19T03:48:47.565Z,99.90
2019-03-19T03:51:17.169Z,99.90
2019-03-19T03:53:46.515Z,99.90
2019-03-19T03:56:15.810Z,99.90
2019-03-19T03:59:00.079Z,99.90
2019-03-19T04:01:17.434Z,99.90
2019-03-19T04:03:46.670Z,99.90
2019-03-19T04:06:16.136Z,99.90
2019-03-19T04:08:45.407Z,99.90
2019-03-19T04:11:14.715Z,99.90
2019-03-19T04:13:43.976Z,99.90
2019-03-19T04:16:13.162Z,99.90
2019-03-19T04:18:42.472Z,99.90
2019-03-19T04:21:11.811Z,99.90
2019-03-19T04:23:41.072Z,99.90
2019-03-19T04:26:10.345Z,99.90
2019-03-19T04:28:39.653Z,99.90
2019-03-19T04:31:08.974Z,99.90
2019-03-19T04:33:38.425Z,99.90
2019-03-19T04:36:07.724Z,99.90
2019-03-19T04:38:37.087Z,99.90
2019-03-19T04:41:06.360Z,99.90
2019-03-19T04:43:37.470Z,99.90
2019-03-19T04:46:06.767Z,99.90
2019-03-19T04:48:36.883Z,99.90
2019-03-19T04:51:06.050Z,99.90
2019-03-19T04:53:35.348Z,99.90
2019-03-19T04:56:04.688Z,99.90
2019-03-19T04:58:34.250Z,99.90
2019-03-19T05:01:03.613Z,99.90
2019-03-19T05:03:32.895Z,99.90
2019-03-19T05:06:02.112Z,99.90
2019-03-19T05:08:31.444Z,99.90
2019-03-19T05:11:00.693Z,99.90
2019-03-19T05:13:31.401Z,99.90
2019-03-19T05:16:00.765Z,99.90
2019-03-19T05:18:31.440Z,99.90
2019-03-19T05:21:00.897Z,99.90
2019-03-19T05:23:30.236Z,99.90
2019-03-19T05:25:59.427Z,99.90
2019-03-19T05:28:29.102Z,99.90
2019-03-19T05:30:59.658Z,99.90
2019-03-19T05:33:28.998Z,99.90
2019-03-19T05:35:58.356Z,99.90
2019-03-19T05:38:29.475Z,99.90
2019-03-19T05:40:58.755Z,99.90
2019-03-19T05:43:28.138Z,99.90
2019-03-19T05:45:57.487Z,99.90
2019-03-19T05:48:26.786Z,99.90
2019-03-19T05:50:56.059Z,99.90
2019-03-19T05:53:25.363Z,99.90
2019-03-19T05:55:54.969Z,99.90
2019-03-19T05:58:24.364Z,99.90
2019-03-19T06:00:53.751Z,99.90
2019-03-19T06:03:23.078Z,99.90
2019-03-19T06:05:52.319Z,99.90
2019-03-19T06:08:21.510Z,99.90
2019-03-19T06:10:50.817Z,99.90
2019-03-19T06:13:20.063Z,99.90
2019-03-19T06:15:49.277Z,99.90
2019-03-19T06:18:18.491Z,99.90
2019-03-19T06:20:47.769Z,99.90
2019-03-19T06:23:17.045Z,99.90
2019-03-19T06:25:46.486Z,99.90
2019-03-19T06:28:18.596Z,99.90
2019-03-19T06:30:51.116Z,99.90
2019-03-19T06:33:20.399Z,99.90
2019-03-19T06:35:50.100Z,99.90
2019-03-19T06:38:19.855Z,99.90
2019-03-19T06:40:49.042Z,99.90
2019-03-19T06:43:18.382Z,99.90
2019-03-19T06:45:49.447Z,99.90
2019-03-19T06:48:18.718Z,99.90
2019-03-19T06:50:47.951Z,99.90
2019-03-19T06:53:17.342Z,99.90
2019-03-19T06:55:46.914Z,99.90
2019-03-19T06:58:16.306Z,99.90
2019-03-19T07:00:45.683Z,99.90
2019-03-19T07:03:14.945Z,99.90
2019-03-19T07:05:44.304Z,99.90
2019-03-19T07:08:13.711Z,99.90
2019-03-19T07:10:43.139Z,99.90
2019-03-19T07:13:12.554Z,99.90
2019-03-19T07:15:41.882Z,99.90
2019-03-19T07:18:11.382Z,99.90
2019-03-19T07:20:40.900Z,99.90
2019-03-19T07:23:10.519Z,99.90
2019-03-19T07:25:40.258Z,99.90
2019-03-19T07:28:09.635Z,99.90
2019-03-19T07:30:40.913Z,99.90
2019-03-19T07:33:10.148Z,99.90
2019-03-19T07:35:39.549Z,99.90
2019-03-19T07:38:08.899Z,99.90
2019-03-19T07:40:38.310Z,99.90
2019-03-19T07:43:07.669Z,99.90
2019-03-19T07:45:37.399Z,99.90
2019-03-19T07:48:06.724Z,99.90
2019-03-19T07:50:36.309Z,99.90
2019-03-19T07:53:05.694Z,99.90
2019-03-19T07:55:35.033Z,99.90
2019-03-19T07:58:04.393Z,99.90
2019-03-19T08:00:33.722Z,99.90
2019-03-19T08:03:03.120Z,99.90
2019-03-19T08:05:33.597Z,99.90
2019-03-19T08:08:03.069Z,99.90
2019-03-19T08:10:32.389Z,99.90
2019-03-19T08:13:01.798Z,99.90
2019-03-19T08:15:31.198Z,99.90
2019-03-19T08:18:00.591Z,99.90
2019-03-19T08:20:29.959Z,99.90
2019-03-19T08:22:59.306Z,99.90
2019-03-19T08:25:28.591Z,99.40
2019-03-19T08:27:57.997Z,99.90
2019-03-19T08:30:27.499Z,99.60
2019-03-19T08:32:57.107Z,99.20
2019-03-19T08:35:26.486Z,99.20
2019-03-19T08:37:55.869Z,98.30
2019-03-19T08:40:25.242Z,97.50
2019-03-19T08:42:54.741Z,98.10
2019-03-19T08:45:24.085Z,97.00
2019-03-19T08:47:53.745Z,96.10
2019-03-19T08:50:24.376Z,95.20
2019-03-19T08:52:55.433Z,94.70
2019-03-19T08:55:24.988Z,94.80
2019-03-19T08:57:54.387Z,94.40
2019-03-19T09:00:23.761Z,94.30
2019-03-19T09:02:53.003Z,94.90
2019-03-19T09:05:22.776Z,94.50
2019-03-19T09:07:52.008Z,94.60
2019-03-19T09:10:21.282Z,94.70
2019-03-19T09:12:50.778Z,94.70
2019-03-19T09:15:20.107Z,95.00
2019-03-19T09:17:49.283Z,95.00
2019-03-19T09:20:18.552Z,95.40
2019-03-19T09:22:47.812Z,95.60
2019-03-19T09:25:17.151Z,95.20
2019-03-19T09:27:46.427Z,95.20
2019-03-19T09:30:17.190Z,96.20
2019-03-19T09:32:46.498Z,96.70
2019-03-19T09:35:15.744Z,97.00
2019-03-19T09:37:57.238Z,97.50
2019-03-19T09:40:16.588Z,96.50
2019-03-19T09:42:45.786Z,96.60
2019-03-19T09:45:15.274Z,96.50
2019-03-19T09:47:45.089Z,96.60
2019-03-19T09:50:15.100Z,96.60
2019-03-19T09:52:44.498Z,97.00
2019-03-19T09:55:13.939Z,96.90
2019-03-19T09:57:43.107Z,96.80
2019-03-19T10:00:17.625Z,96.30
2019-03-19T10:02:46.931Z,95.60
2019-03-19T10:05:16.185Z,96.20
2019-03-19T10:07:45.727Z,95.00
2019-03-19T10:10:15.625Z,95.40
2019-03-19T10:12:44.844Z,95.00
2019-03-19T10:15:14.727Z,95.20
2019-03-19T10:17:43.986Z,93.60
2019-03-19T10:20:14.117Z,94.80
2019-03-19T10:22:43.584Z,94.70
2019-03-19T10:25:12.910Z,93.80
2019-03-19T10:27:42.312Z,94.00
2019-03-19T10:30:14.707Z,92.00
2019-03-19T10:32:44.015Z,91.80
2019-03-19T10:35:13.662Z,90.20
2019-03-19T10:37:42.866Z,87.70
2019-03-19T10:40:12.124Z,86.70
2019-03-19T10:42:41.415Z,88.70
2019-03-19T10:45:11.305Z,89.00
2019-03-19T10:47:40.634Z,88.50
2019-03-19T10:50:13.674Z,90.00
2019-03-19T10:52:42.938Z,90.30
2019-03-19T10:55:12.785Z,90.30
2019-03-19T10:57:42.183Z,90.90
2019-03-19T11:00:16.402Z,90.80
2019-03-19T11:02:45.734Z,89.90
2019-03-19T11:05:15.608Z,90.20
2019-03-19T11:07:44.931Z,89.60
2019-03-19T11:10:14.347Z,90.90
2019-03-19T11:12:44.079Z,90.70
2019-03-19T11:15:15.246Z,89.00
2019-03-19T11:17:44.538Z,88.10
2019-03-19T11:20:15.143Z,87.10
2019-03-19T11:22:44.526Z,87.40
2019-03-19T11:25:14.670Z,85.00
2019-03-19T11:27:44.559Z,86.80
2019-03-19T11:30:21.501Z,87.80
2019-03-19T11:32:50.896Z,86.70
2019-03-19T11:35:20.559Z,87.80
2019-03-19T11:37:49.935Z,86.60
2019-03-19T11:40:19.318Z,86.70
2019-03-19T11:42:48.594Z,85.90
2019-03-19T11:45:18.434Z,83.60
2019-03-19T11:47:47.946Z,85.70
2019-03-19T11:50:19.325Z,85.70
2019-03-19T11:52:48.868Z,89.60
2019-03-19T11:55:18.731Z,90.70
2019-03-19T11:57:48.027Z,91.30
2019-03-19T12:00:29.835Z,92.00
2019-03-19T12:02:59.195Z,92.00
2019-03-19T12:05:28.488Z,92.20
2019-03-19T12:07:57.808Z,91.80
2019-03-19T12:10:27.151Z,91.80
2019-03-19T12:12:56.359Z,91.20
2019-03-19T12:15:25.655Z,92.00
2019-03-19T12:17:55.376Z,92.50
2019-03-19T12:20:24.682Z,91.60
2019-03-19T12:22:54.070Z,91.70
2019-03-19T12:25:23.346Z,91.70
2019-03-19T12:27:52.609Z,90.80
2019-03-19T12:30:24.797Z,86.40
2019-03-19T12:32:52.962Z,87.30
2019-03-19T12:35:22.297Z,85.80
2019-03-19T12:37:51.611Z,85.10
2019-03-19T12:40:21.082Z,87.20
2019-03-19T12:42:50.544Z,85.20
2019-03-19T12:45:19.981Z,83.90
2019-03-19T12:47:49.299Z,85.30
2019-03-19T12:50:18.665Z,84.20
2019-03-19T12:52:48.447Z,83.40
2019-03-19T12:55:18.083Z,82.10
2019-03-19T12:57:47.330Z,82.20
2019-03-19T13:00:19.905Z,84.60
2019-03-19T13:02:49.256Z,83.80
2019-03-19T13:05:22.544Z,82.40
2019-03-19T13:07:51.877Z,82.70
2019-03-19T13:10:21.246Z,77.00
2019-03-19T13:12:51.641Z,77.40
2019-03-19T13:15:20.917Z,76.00
2019-03-19T13:17:51.619Z,77.50
2019-03-19T13:20:21.058Z,76.30
2019-03-19T13:22:50.446Z,78.40
2019-03-19T13:25:19.811Z,79.30
2019-03-19T13:27:49.140Z,78.30
2019-03-19T13:30:21.466Z,77.80
2019-03-19T13:32:50.689Z,76.10
2019-03-19T13:35:20.034Z,75.80
2019-03-19T13:37:49.376Z,76.00
2019-03-19T13:40:21.417Z,74.60
2019-03-19T13:42:50.711Z,77.30
2019-03-19T13:45:20.127Z,76.50
2019-03-19T13:47:49.408Z,76.40
2019-03-19T13:50:20.669Z,75.70
2019-03-19T13:52:51.118Z,76.20
2019-03-19T13:55:20.559Z,76.90
2019-03-19T13:57:49.894Z,78.20
2019-03-19T14:00:19.161Z,78.10
2019-03-19T14:02:49.019Z,78.90
2019-03-19T14:05:18.349Z,78.10
2019-03-19T14:07:47.704Z,78.80
2019-03-19T14:10:16.956Z,77.50
2019-03-19T14:12:46.271Z,78.10
2019-03-19T14:15:15.611Z,78.30
2019-03-19T14:17:44.804Z,78.40
2019-03-19T14:20:15.423Z,78.20
2019-03-19T14:22:45.678Z,78.10
2019-03-19T14:25:15.402Z,78.70
2019-03-19T14:27:44.779Z,78.30
2019-03-19T14:30:15.768Z,75.40
2019-03-19T14:32:44.996Z,77.70
2019-03-19T14:35:14.658Z,77.20
2019-03-19T14:37:43.985Z,78.10
2019-03-19T14:40:15.048Z,76.80
2019-03-19T14:42:44.296Z,77.80
2019-03-19T14:45:13.724Z,78.20
2019-03-19T14:47:42.895Z,78.20
2019-03-19T14:50:12.905Z,77.80
2019-03-19T14:52:43.900Z,76.70
2019-03-19T14:55:13.143Z,76.60
2019-03-19T14:57:42.838Z,78.30
2019-03-19T15:00:14.069Z,80.00
2019-03-19T15:02:43.395Z,79.60
2019-03-19T15:05:13.215Z,78.80
2019-03-19T15:07:42.386Z,78.30
2019-03-19T15:10:13.435Z,78.20
2019-03-19T15:12:42.787Z,78.50
2019-03-19T15:15:13.151Z,79.40
2019-03-19T15:17:42.494Z,78.90
2019-03-19T15:20:16.526Z,78.60
2019-03-19T15:22:46.113Z,78.90
2019-03-19T15:25:15.410Z,80.10
2019-03-19T15:27:44.884Z,80.50
2019-03-19T15:30:14.832Z,81.00
2019-03-19T15:32:44.158Z,81.60
2019-03-19T15:35:13.671Z,81.60
2019-03-19T15:37:42.975Z,81.60
2019-03-19T15:40:13.034Z,82.10
2019-03-19T15:42:42.497Z,81.20
2019-03-19T15:45:12.315Z,80.80
2019-03-19T15:47:44.035Z,80.00
2019-03-19T15:50:14.812Z,80.80
2019-03-19T15:52:44.315Z,80.00
2019-03-19T15:55:14.754Z,80.30
2019-03-19T15:57:44.633Z,79.70
2019-03-19T16:00:15.552Z,79.70
2019-03-19T16:02:45.018Z,80.10
2019-03-19T16:05:14.668Z,79.40
2019-03-19T16:07:44.161Z,81.10
2019-03-19T16:10:13.730Z,81.50
2019-03-19T16:12:43.140Z,81.80
2019-03-19T16:15:13.429Z,81.30
2019-03-19T16:17:42.883Z,81.00
2019-03-19T16:20:14.048Z,79.80
2019-03-19T16:22:43.569Z,80.80
2019-03-19T16:25:13.389Z,81.60
2019-03-19T16:27:42.978Z,81.50
2019-03-19T16:30:13.825Z,82.00
2019-03-19T16:32:43.332Z,82.70
2019-03-19T16:35:12.827Z,82.90
2019-03-19T16:37:42.228Z,82.50
2019-03-19T16:40:14.503Z,82.70
2019-03-19T16:42:43.925Z,82.00
2019-03-19T16:45:13.740Z,80.70
2019-03-19T16:47:43.175Z,81.20
2019-03-19T16:50:13.750Z,81.70
2019-03-19T16:52:43.372Z,82.40
2019-03-19T16:55:13.420Z,82.00
2019-03-19T16:57:42.992Z,82.40
2019-03-19T17:00:14.854Z,82.90
2019-03-19T17:02:44.246Z,82.70
2019-03-19T17:05:14.546Z,82.40
2019-03-19T17:07:44.221Z,80.50
2019-03-19T17:10:14.561Z,81.20
2019-03-19T17:12:44.088Z,80.90
2019-03-19T17:15:14.360Z,81.60
2019-03-19T17:17:44.057Z,81.10
2019-03-19T17:20:14.083Z,82.70
2019-03-19T17:22:43.547Z,83.00
2019-03-19T17:25:14.111Z,83.70
2019-03-19T17:27:43.644Z,84.10
2019-03-19T17:30:18.692Z,85.10
2019-03-19T17:32:49.185Z,83.90
2019-03-19T17:35:21.512Z,87.90
2019-03-19T17:37:50.998Z,87.30
2019-03-19T17:40:20.400Z,86.40
2019-03-19T17:42:50.339Z,86.60
2019-03-19T17:45:19.729Z,87.80
2019-03-19T17:47:49.177Z,86.90
2019-03-19T17:50:19.745Z,87.40
2019-03-19T17:52:49.978Z,87.30
2019-03-19T17:55:19.442Z,87.30
2019-03-19T17:57:48.814Z,88.30
2019-03-19T18:00:22.060Z,88.70
2019-03-19T18:02:51.654Z,89.40
2019-03-19T18:05:21.164Z,89.70
2019-03-19T18:07:50.568Z,90.00
2019-03-19T18:10:19.923Z,90.00
2019-03-19T18:12:49.543Z,90.30
2019-03-19T18:15:18.958Z,90.30
2019-03-19T18:17:48.333Z,90.40
2019-03-19T18:20:17.992Z,90.50
2019-03-19T18:22:47.470Z,90.70
2019-03-19T18:25:17.102Z,90.70
2019-03-19T18:27:47.098Z,90.80
2019-03-19T18:30:16.703Z,90.90
2019-03-19T18:32:46.215Z,90.90
2019-03-19T18:35:15.690Z,91.00
2019-03-19T18:37:45.022Z,90.70
2019-03-19T18:40:14.649Z,90.90
2019-03-19T18:42:44.564Z,90.50
2019-03-19T18:45:14.246Z,90.50
2019-03-19T18:47:43.560Z,90.50
2019-03-19T18:50:13.658Z,90.50
2019-03-19T18:52:44.690Z,90.80
2019-03-19T18:55:14.407Z,90.90
2019-03-19T18:57:43.822Z,90.80
2019-03-19T19:00:14.800Z,90.50
2019-03-19T19:02:49.627Z,90.50
2019-03-19T19:05:15.257Z,90.60
2019-03-19T19:07:44.810Z,90.70
2019-03-19T19:10:14.751Z,90.60
2019-03-19T19:12:44.112Z,90.60
2019-03-19T19:15:14.840Z,90.80
2019-03-19T19:17:44.653Z,91.00
2019-03-19T19:20:14.173Z,91.30
2019-03-19T19:22:43.581Z,91.30
2019-03-19T19:25:14.139Z,91.50
2019-03-19T19:27:43.475Z,91.60
2019-03-19T19:30:15.689Z,91.60
2019-03-19T19:32:45.117Z,91.60
2019-03-19T19:35:14.576Z,91.50
2019-03-19T19:37:43.901Z,91.50
2019-03-19T19:40:14.230Z,91.50
2019-03-19T19:42:43.629Z,91.50
2019-03-19T19:45:13.161Z,91.80
2019-03-19T19:47:42.627Z,91.70
2019-03-19T19:50:13.471Z,91.50
2019-03-19T19:52:43.112Z,91.80
2019-03-19T19:55:12.799Z,91.40
2019-03-19T19:57:42.305Z,91.60
2019-03-19T20:00:14.110Z,92.00
2019-03-19T20:02:43.669Z,91.90
2019-03-19T20:05:13.502Z,92.30
2019-03-19T20:07:43.035Z,92.30
2019-03-19T20:10:15.005Z,92.20
2019-03-19T20:12:44.429Z,92.20
2019-03-19T20:15:14.111Z,92.20
2019-03-19T20:17:44.130Z,92.40
2019-03-19T20:20:16.111Z,92.30
2019-03-19T20:22:45.580Z,92.40
2019-03-19T20:25:15.126Z,92.60
2019-03-19T20:27:44.575Z,92.70
2019-03-19T20:30:16.412Z,92.60
2019-03-19T20:32:46.405Z,92.80
2019-03-19T20:35:15.809Z,92.90
2019-03-19T20:37:45.432Z,93.10
2019-03-19T20:40:14.955Z,93.30
2019-03-19T20:42:44.391Z,93.30
2019-03-19T20:45:14.031Z,93.40
2019-03-19T20:47:43.423Z,93.40
2019-03-19T20:50:18.795Z,93.60
2019-03-19T20:52:48.229Z,93.80
2019-03-19T20:55:17.810Z,93.90
2019-03-19T20:57:47.420Z,94.00
2019-03-19T21:00:17.444Z,94.00
2019-03-19T21:02:46.931Z,94.20
2019-03-19T21:05:16.558Z,94.30
2019-03-19T21:07:45.960Z,94.40
2019-03-19T21:10:17.080Z,94.50
2019-03-19T21:12:46.601Z,94.40
2019-03-19T21:15:21.064Z,94.50
2019-03-19T21:17:50.667Z,94.60
2019-03-19T21:20:21.032Z,94.60
2019-03-19T21:22:50.468Z,94.70
2019-03-19T21:25:20.010Z,94.80
2019-03-19T21:27:49.540Z,94.80
2019-03-19T21:30:19.297Z,94.90
2019-03-19T21:32:48.879Z,95.00
2019-03-19T21:35:20.307Z,95.00
2019-03-19T21:37:49.640Z,95.20
2019-03-19T21:40:19.074Z,95.20
2019-03-19T21:42:48.847Z,95.30
2019-03-19T21:45:18.277Z,95.30
2019-03-19T21:47:47.929Z,95.30
2019-03-19T21:50:17.422Z,95.50
2019-03-19T21:52:46.736Z,95.60
2019-03-19T21:55:16.168Z,95.70
2019-03-19T21:57:45.538Z,95.80
2019-03-19T22:00:15.966Z,96.10
2019-03-19T22:02:45.335Z,96.10
2019-03-19T22:05:14.944Z,96.20
2019-03-19T22:07:44.238Z,96.30
2019-03-19T22:10:14.161Z,96.40
2019-03-19T22:12:43.969Z,96.50
2019-03-19T22:15:15.409Z,96.60
2019-03-19T22:17:45.017Z,96.60
2019-03-19T22:20:14.846Z,96.60
2019-03-19T22:22:44.151Z,96.70
2019-03-19T22:25:13.504Z,96.80
2019-03-19T22:27:42.723Z,96.90
2019-03-19T22:30:14.252Z,97.00
2019-03-19T22:32:43.761Z,97.10
2019-03-19T22:35:13.105Z,97.40
2019-03-19T22:37:42.648Z,97.30
2019-03-19T22:40:14.224Z,97.40
2019-03-19T22:42:46.008Z,97.60
2019-03-19T22:45:15.663Z,97.70
2019-03-19T22:47:45.142Z,97.80
2019-03-19T22:50:14.971Z,97.90
2019-03-19T22:52:45.720Z,98.20
2019-03-19T22:55:15.164Z,98.30
2019-03-19T22:57:44.650Z,98.40
2019-03-19T23:00:21.759Z,98.70
2019-03-19T23:02:51.259Z,98.90
2019-03-19T23:05:20.776Z,98.90
2019-03-19T23:07:50.588Z,98.90
2019-03-19T23:10:19.979Z,99.00
2019-03-19T23:12:49.523Z,99.20
2019-03-19T23:15:19.114Z,99.30
2019-03-19T23:17:48.554Z,99.30
2019-03-19T23:20:17.954Z,99.30
2019-03-19T23:22:47.524Z,99.30
2019-03-19T23:25:17.112Z,99.70
2019-03-19T23:27:46.551Z,99.90
2019-03-19T23:30:15.878Z,99.90
2019-03-19T23:32:46.823Z,99.90
2019-03-19T23:35:16.310Z,99.90
2019-03-19T23:37:45.697Z,99.90
2019-03-19T23:40:15.456Z,99.90
2019-03-19T23:42:44.833Z,99.90
2019-03-19T23:45:14.372Z,99.90
2019-03-19T23:50:40.017Z,99.90
2019-03-19T23:53:09.425Z,99.90
2019-03-19T23:55:38.903Z,99.90
2019-03-19T23:58:08.352Z,99.90
